createdAt,value
2023-01-25T00:01:47.586Z,38.97
2023-01-25T00:04:14.993Z,35.67
2023-01-25T00:06:42.328Z,0.73
2023-01-25T00:09:10.790Z,0.37
2023-01-25T00:11:38.113Z,0.83
2023-01-25T00:14:05.968Z,8.20
2023-01-25T00:16:33.445Z,20.57
2023-01-25T00:19:00.819Z,38.90
2023-01-25T00:21:28.165Z,41.33
2023-01-25T00:23:55.629Z,37.53
2023-01-25T00:26:23.104Z,40.77
2023-01-25T00:28:51.254Z,25.10
2023-01-25T00:31:22.567Z,36.57
2023-01-25T00:34:02.762Z,14.63
2023-01-25T00:36:34.291Z,2.97
2023-01-25T00:39:01.704Z,7.83
2023-01-25T00:41:29.090Z,19.33
2023-01-25T00:43:56.356Z,18.23
2023-01-25T00:46:23.780Z,38.03
2023-01-25T00:48:54.365Z,39.17
2023-01-25T00:51:22.068Z,42.07
2023-01-25T00:53:49.515Z,44.23
2023-01-25T00:56:16.836Z,40.97
2023-01-25T00:58:44.282Z,40.00
2023-01-25T01:01:11.795Z,43.00
2023-01-25T01:03:39.423Z,19.73
2023-01-25T01:06:10.992Z,5.30
2023-01-25T01:08:41.286Z,0.20
2023-01-25T01:11:10.056Z,0.30
2023-01-25T01:13:37.503Z,0.20
2023-01-25T01:16:05.413Z,16.63
2023-01-25T01:18:36.130Z,6.80
2023-01-25T01:21:03.838Z,38.40
2023-01-25T01:23:31.924Z,36.40
2023-01-25T01:26:02.690Z,45.83
2023-01-25T01:28:33.345Z,41.63
2023-01-25T01:31:01.353Z,37.47
2023-01-25T01:33:28.761Z,31.47
2023-01-25T01:35:56.177Z,42.80
2023-01-25T01:38:23.531Z,37.10
2023-01-25T01:40:50.969Z,39.93
2023-01-25T01:43:24.585Z,1.37
2023-01-25T01:45:56.942Z,8.80
2023-01-25T01:48:30.292Z,1.27
2023-01-25T01:51:19.564Z,0.30
2023-01-25T01:53:55.524Z,0.30
2023-01-25T01:56:24.732Z,5.20
2023-01-25T01:58:52.072Z,0.83
2023-01-25T02:01:20.531Z,0.77
2023-01-25T02:03:47.980Z,4.73
2023-01-25T02:06:16.372Z,13.03
2023-01-25T02:08:44.109Z,9.10
2023-01-25T02:11:11.570Z,11.93
2023-01-25T02:13:38.813Z,0.30
2023-01-25T02:16:06.392Z,0.40
2023-01-25T02:18:33.715Z,0.30
2023-01-25T02:21:01.142Z,4.17
2023-01-25T02:23:28.499Z,19.27
2023-01-25T02:25:56.397Z,11.60
2023-01-25T02:28:27.808Z,1.23
2023-01-25T02:30:55.357Z,0.20
2023-01-25T02:33:25.780Z,0.90
2023-01-25T02:36:08.619Z,0.93
2023-01-25T02:38:36.715Z,0.80
2023-01-25T02:41:05.261Z,39.40
2023-01-25T02:43:32.774Z,3.10
2023-01-25T02:46:20.444Z,4.10
2023-01-25T02:48:47.838Z,0.30
2023-01-25T02:51:15.275Z,27.57
2023-01-25T02:53:42.551Z,5.60
2023-01-25T02:56:09.900Z,1.23
2023-01-25T02:58:37.168Z,27.93
2023-01-25T03:01:04.620Z,1.80
2023-01-25T03:03:32.281Z,2.03
2023-01-25T03:05:59.793Z,0.40
2023-01-25T03:08:27.089Z,0.30
2023-01-25T03:10:59.736Z,0.80
2023-01-25T03:13:27.146Z,0.20
2023-01-25T03:15:59.058Z,1.23
2023-01-25T03:18:26.391Z,1.80
2023-01-25T03:20:53.796Z,0.50
2023-01-25T03:23:21.200Z,16.17
2023-01-25T03:25:48.551Z,27.70
2023-01-25T03:28:15.811Z,31.67
2023-01-25T03:30:43.166Z,3.60
2023-01-25T03:33:10.495Z,0.57
2023-01-25T03:35:37.775Z,19.27
2023-01-25T03:38:05.187Z,36.33
2023-01-25T03:40:32.547Z,0.30
2023-01-25T03:42:59.903Z,1.33
2023-01-25T03:45:27.232Z,0.30
2023-01-25T03:47:54.555Z,22.97
2023-01-25T03:50:21.934Z,22.57
2023-01-25T03:52:57.455Z,12.67
2023-01-25T03:55:24.780Z,12.17
2023-01-25T03:57:52.177Z,23.07
2023-01-25T04:00:20.195Z,13.20
2023-01-25T04:02:47.717Z,44.83
2023-01-25T04:05:15.046Z,51.93
2023-01-25T04:07:42.402Z,44.63
2023-01-25T04:10:10.106Z,44.03
2023-01-25T04:12:38.224Z,55.17
2023-01-25T04:15:05.705Z,48.30
2023-01-25T04:17:33.145Z,53.23
2023-01-25T04:20:00.594Z,43.97
2023-01-25T04:22:27.943Z,42.30
2023-01-25T04:24:55.304Z,44.40
2023-01-25T04:27:22.658Z,38.90
2023-01-25T04:29:50.199Z,47.67
2023-01-25T04:32:17.631Z,42.10
2023-01-25T04:34:45.070Z,4.13
2023-01-25T04:37:12.592Z,41.87
2023-01-25T04:39:39.999Z,51.77
2023-01-25T04:42:07.336Z,44.70
2023-01-25T04:44:34.682Z,46.00
2023-01-25T04:47:02.076Z,38.20
2023-01-25T04:49:29.440Z,47.27
2023-01-25T04:51:56.820Z,49.83
2023-01-25T04:54:24.215Z,47.77
2023-01-25T04:56:51.551Z,46.33
2023-01-25T04:59:18.929Z,42.63
2023-01-25T05:01:49.348Z,42.23
2023-01-25T05:04:16.727Z,46.63
2023-01-25T05:06:44.028Z,49.03
2023-01-25T05:09:11.445Z,47.00
2023-01-25T05:11:38.775Z,44.90
2023-01-25T05:14:06.272Z,45.57
2023-01-25T05:16:33.634Z,40.67
2023-01-25T05:19:00.961Z,43.13
2023-01-25T05:21:46.886Z,44.57
2023-01-25T05:24:14.388Z,44.83
2023-01-25T05:27:14.098Z,48.23
2023-01-25T05:29:41.724Z,52.33
2023-01-25T05:32:13.298Z,49.27
2023-01-25T05:34:40.936Z,52.17
2023-01-25T05:37:08.732Z,46.03
2023-01-25T05:39:36.069Z,46.47
2023-01-25T05:42:03.480Z,49.23
2023-01-25T05:44:30.716Z,24.40
2023-01-25T05:46:58.070Z,48.73
2023-01-25T05:49:25.385Z,52.20
2023-01-25T05:51:52.756Z,57.97
2023-01-25T05:54:20.030Z,55.03
2023-01-25T05:56:48.681Z,61.70
2023-01-25T05:59:15.976Z,52.90
2023-01-25T06:01:43.395Z,52.20
2023-01-25T06:04:11.593Z,51.23
2023-01-25T06:06:38.908Z,48.70
2023-01-25T06:09:06.211Z,44.43
2023-01-25T06:11:33.543Z,0.67
2023-01-25T06:14:00.798Z,27.97
2023-01-25T06:16:28.044Z,47.90
2023-01-25T06:18:55.379Z,46.63
2023-01-25T06:21:23.376Z,49.07
2023-01-25T06:23:50.806Z,56.87
2023-01-25T06:26:18.267Z,60.57
2023-01-25T06:28:45.723Z,52.10
2023-01-25T06:31:13.136Z,53.70
2023-01-25T06:33:41.133Z,53.77
2023-01-25T06:36:14.962Z,56.57
2023-01-25T06:38:42.481Z,59.97
2023-01-25T06:41:12.068Z,58.40
2023-01-25T06:43:39.595Z,60.20
2023-01-25T06:46:07.953Z,58.53
2023-01-25T06:48:35.275Z,57.97
2023-01-25T06:51:03.454Z,61.50
2023-01-25T06:53:31.475Z,61.30
2023-01-25T06:56:02.548Z,61.10
2023-01-25T06:58:29.970Z,57.07
2023-01-25T07:01:01.006Z,60.47
2023-01-25T07:03:28.791Z,64.77
2023-01-25T07:06:00.034Z,58.73
2023-01-25T07:08:27.569Z,55.97
2023-01-25T07:10:55.656Z,58.13
2023-01-25T07:13:23.127Z,48.00
2023-01-25T07:15:56.893Z,54.60
2023-01-25T07:18:24.417Z,57.63
2023-01-25T07:20:51.829Z,51.27
2023-01-25T07:23:19.693Z,57.17
2023-01-25T07:25:50.761Z,55.87
2023-01-25T07:28:18.222Z,58.60
2023-01-25T07:30:45.655Z,60.10
2023-01-25T07:33:12.993Z,59.13
2023-01-25T07:35:40.257Z,56.57
2023-01-25T07:38:07.864Z,55.40
2023-01-25T07:40:35.172Z,59.57
2023-01-25T07:43:02.553Z,51.27
2023-01-25T07:45:32.650Z,59.77
2023-01-25T07:48:00.132Z,57.77
2023-01-25T07:50:27.908Z,57.20
2023-01-25T07:52:55.520Z,58.67
2023-01-25T07:55:22.968Z,55.00
2023-01-25T07:57:50.520Z,56.23
2023-01-25T08:00:18.014Z,51.50
2023-01-25T08:02:45.347Z,54.57
2023-01-25T08:05:12.654Z,50.77
2023-01-25T08:07:40.066Z,60.23
2023-01-25T08:10:07.511Z,58.53
2023-01-25T08:12:35.072Z,56.83
2023-01-25T08:15:02.644Z,66.53
2023-01-25T08:17:32.855Z,58.27
2023-01-25T08:20:01.704Z,56.67
2023-01-25T08:22:29.112Z,51.17
2023-01-25T08:24:56.822Z,54.20
2023-01-25T08:27:24.491Z,58.00
2023-01-25T08:29:54.045Z,55.30
2023-01-25T08:32:21.421Z,58.13
2023-01-25T08:34:48.737Z,54.23
2023-01-25T08:37:16.108Z,66.00
2023-01-25T08:39:43.453Z,59.77
2023-01-25T08:42:10.828Z,55.27
2023-01-25T08:44:38.192Z,54.70
2023-01-25T08:47:05.592Z,55.70
2023-01-25T08:49:34.543Z,55.27
2023-01-25T08:52:01.952Z,53.67
2023-01-25T08:54:29.326Z,55.67
2023-01-25T08:56:56.720Z,53.43
2023-01-25T08:59:24.129Z,49.43
2023-01-25T09:01:51.553Z,55.23
2023-01-25T09:04:19.662Z,52.10
2023-01-25T09:06:47.055Z,48.47
2023-01-25T09:09:14.417Z,58.17
2023-01-25T09:11:41.770Z,56.93
2023-01-25T09:14:09.148Z,53.50
2023-01-25T09:16:36.479Z,52.10
2023-01-25T09:19:04.548Z,47.03
2023-01-25T09:21:32.041Z,53.83
2023-01-25T09:24:07.899Z,54.13
2023-01-25T09:26:36.273Z,57.10
2023-01-25T09:29:03.637Z,50.73
2023-01-25T09:31:31.244Z,49.43
2023-01-25T09:33:58.801Z,54.90
2023-01-25T09:36:26.219Z,53.77
2023-01-25T09:38:53.639Z,53.50
2023-01-25T09:41:39.564Z,56.83
2023-01-25T09:44:22.167Z,55.50
2023-01-25T09:46:53.958Z,56.67
2023-01-25T09:49:21.391Z,45.00
2023-01-25T09:52:08.193Z,48.87
2023-01-25T09:54:46.536Z,51.50
2023-01-25T09:57:27.813Z,54.00
2023-01-25T09:59:55.101Z,52.37
2023-01-25T10:02:22.484Z,54.30
2023-01-25T10:04:51.868Z,51.97
2023-01-25T10:07:25.300Z,50.60
2023-01-25T10:09:54.533Z,49.43
2023-01-25T10:12:23.715Z,50.20
2023-01-25T10:14:51.211Z,52.50
2023-01-25T10:17:21.527Z,54.20
2023-01-25T10:19:52.276Z,46.60
2023-01-25T10:22:23.163Z,46.30
2023-01-25T10:25:12.220Z,47.23
2023-01-25T10:27:42.377Z,48.80
2023-01-25T10:30:19.393Z,49.83
2023-01-25T10:32:54.882Z,48.77
2023-01-25T10:35:34.824Z,51.60
2023-01-25T10:38:08.208Z,44.00
2023-01-25T10:40:39.531Z,48.77
2023-01-25T10:43:15.495Z,53.87
2023-01-25T10:45:44.589Z,52.40
2023-01-25T10:48:13.608Z,56.03
2023-01-25T10:50:47.029Z,60.33
2023-01-25T10:53:22.056Z,54.33
2023-01-25T10:56:00.824Z,51.20
2023-01-25T10:58:35.187Z,57.83
2023-01-25T11:01:02.596Z,43.27
2023-01-25T11:03:39.850Z,47.13
2023-01-25T11:06:07.789Z,50.43
2023-01-25T11:08:38.956Z,58.57
2023-01-25T11:11:25.643Z,39.67
2023-01-25T11:13:55.083Z,25.47
2023-01-25T11:16:33.087Z,51.43
2023-01-25T11:19:00.917Z,51.43
2023-01-25T11:21:28.945Z,46.77
2023-01-25T11:24:00.097Z,54.13
2023-01-25T11:26:27.435Z,50.97
2023-01-25T11:29:08.103Z,47.70
2023-01-25T11:31:36.018Z,46.97
2023-01-25T11:34:03.408Z,58.90
2023-01-25T11:36:30.792Z,53.30
2023-01-25T11:39:07.292Z,50.97
2023-01-25T11:41:37.694Z,45.93
2023-01-25T11:44:08.464Z,55.63
2023-01-25T11:46:35.854Z,63.70
2023-01-25T11:49:12.188Z,48.13
2023-01-25T11:51:44.869Z,48.40
2023-01-25T11:54:21.416Z,53.00
2023-01-25T11:56:57.127Z,54.50
2023-01-25T11:59:30.391Z,51.10
2023-01-25T12:01:57.680Z,54.37
2023-01-25T12:04:29.011Z,50.83
2023-01-25T12:06:56.386Z,47.80
2023-01-25T12:09:23.747Z,42.97
2023-01-25T12:12:11.418Z,52.03
2023-01-25T12:14:38.780Z,50.23
2023-01-25T12:17:11.970Z,48.63
2023-01-25T12:19:51.552Z,40.37
2023-01-25T12:22:42.208Z,51.57
2023-01-25T12:25:28.294Z,48.27
2023-01-25T12:28:14.321Z,50.63
2023-01-25T12:31:01.273Z,48.07
2023-01-25T12:33:28.669Z,53.73
2023-01-25T12:36:00.784Z,53.70
2023-01-25T12:38:33.660Z,57.23
2023-01-25T12:41:03.467Z,55.77
2023-01-25T12:43:38.915Z,54.17
2023-01-25T12:46:10.432Z,65.97
2023-01-25T12:48:41.401Z,54.03
2023-01-25T12:51:08.726Z,58.27
2023-01-25T12:53:36.213Z,63.47
2023-01-25T12:56:05.584Z,59.60
2023-01-25T12:58:41.841Z,51.37
2023-01-25T13:01:14.111Z,58.53
2023-01-25T13:03:44.495Z,69.37
2023-01-25T13:06:21.159Z,55.77
2023-01-25T13:08:51.175Z,57.47
2023-01-25T13:11:20.659Z,50.20
2023-01-25T13:13:48.087Z,57.20
2023-01-25T13:16:30.826Z,44.07
2023-01-25T13:18:58.569Z,50.33
2023-01-25T13:21:38.213Z,44.90
2023-01-25T13:24:21.988Z,51.37
2023-01-25T13:26:49.512Z,44.67
2023-01-25T13:29:38.700Z,44.10
2023-01-25T13:32:06.656Z,48.20
2023-01-25T13:34:34.113Z,45.80
2023-01-25T13:37:01.756Z,44.87
2023-01-25T13:39:29.117Z,49.27
2023-01-25T13:42:03.442Z,50.00
2023-01-25T13:44:31.925Z,51.63
2023-01-25T13:46:59.864Z,50.10
2023-01-25T13:49:28.533Z,46.73
2023-01-25T13:51:55.986Z,48.27
2023-01-25T13:54:23.439Z,53.40
2023-01-25T13:56:51.597Z,60.07
2023-01-25T13:59:28.483Z,44.43
2023-01-25T14:01:57.390Z,58.23
2023-01-25T14:04:24.863Z,51.07
2023-01-25T14:06:56.222Z,54.80
2023-01-25T14:09:24.045Z,41.63
2023-01-25T14:11:57.915Z,49.33
2023-01-25T14:14:29.363Z,30.73
2023-01-25T14:17:23.372Z,48.07
2023-01-25T14:19:51.687Z,58.37
2023-01-25T14:22:19.006Z,50.90
2023-01-25T14:24:46.636Z,51.93
2023-01-25T14:27:14.186Z,59.43
2023-01-25T14:29:41.649Z,50.57
2023-01-25T14:32:14.535Z,52.23
2023-01-25T14:34:41.878Z,49.50
2023-01-25T14:37:20.857Z,53.30
2023-01-25T14:39:48.517Z,44.27
2023-01-25T14:42:19.029Z,54.47
2023-01-25T14:44:46.410Z,50.37
2023-01-25T14:47:23.283Z,51.20
2023-01-25T14:49:50.793Z,60.70
2023-01-25T14:52:19.552Z,50.70
2023-01-25T14:54:46.903Z,52.03
2023-01-25T14:57:33.052Z,49.67
2023-01-25T15:00:01.358Z,51.17
2023-01-25T15:02:47.401Z,48.70
2023-01-25T15:05:25.040Z,57.57
2023-01-25T15:07:53.165Z,53.00
2023-01-25T15:10:20.605Z,53.27
2023-01-25T15:13:04.215Z,54.03
2023-01-25T15:15:50.629Z,60.93
2023-01-25T15:18:36.507Z,37.17
2023-01-25T15:21:03.930Z,50.97
2023-01-25T15:23:31.336Z,53.07
2023-01-25T15:25:59.469Z,47.53
2023-01-25T15:28:28.116Z,60.17
2023-01-25T15:30:57.657Z,48.33
2023-01-25T15:33:26.100Z,49.63
2023-01-25T15:35:53.565Z,49.80
2023-01-25T15:38:22.005Z,60.77
2023-01-25T15:40:50.829Z,56.83
2023-01-25T15:43:18.451Z,64.83
2023-01-25T15:45:47.038Z,56.13
2023-01-25T15:48:16.165Z,51.70
2023-01-25T15:50:43.556Z,57.60
2023-01-25T15:53:17.218Z,60.80
2023-01-25T15:55:45.461Z,64.00
2023-01-25T15:58:26.789Z,64.20
2023-01-25T16:00:54.474Z,60.83
2023-01-25T16:03:21.912Z,51.87
2023-01-25T16:05:51.822Z,58.10
2023-01-25T16:08:20.998Z,61.97
2023-01-25T16:10:49.211Z,61.37
2023-01-25T16:13:16.730Z,67.87
2023-01-25T16:15:44.024Z,63.60
2023-01-25T16:18:13.404Z,55.37
2023-01-25T16:20:41.086Z,66.87
2023-01-25T16:23:08.956Z,65.73
2023-01-25T16:25:36.382Z,63.43
2023-01-25T16:28:03.932Z,77.33
2023-01-25T16:30:34.244Z,75.00
2023-01-25T16:33:01.861Z,74.40
2023-01-25T16:35:29.498Z,71.90
2023-01-25T16:37:57.539Z,85.47
2023-01-25T16:40:25.844Z,73.53
2023-01-25T16:42:53.533Z,67.07
2023-01-25T16:45:21.011Z,70.63
2023-01-25T16:47:48.553Z,75.43
2023-01-25T16:50:16.518Z,84.17
2023-01-25T16:52:45.096Z,76.20
2023-01-25T16:55:13.055Z,74.73
2023-01-25T16:57:40.968Z,74.13
2023-01-25T17:00:10.781Z,78.50
2023-01-25T17:02:41.861Z,81.43
2023-01-25T17:05:11.724Z,80.27
2023-01-25T17:07:39.153Z,73.23
2023-01-25T17:10:08.503Z,78.60
2023-01-25T17:12:36.291Z,79.27
2023-01-25T17:15:04.259Z,86.47
2023-01-25T17:17:31.865Z,81.77
2023-01-25T17:19:59.284Z,89.67
2023-01-25T17:22:26.784Z,95.97
2023-01-25T17:24:55.854Z,91.27
2023-01-25T17:27:23.451Z,88.50
2023-01-25T17:29:50.858Z,89.13
2023-01-25T17:32:18.250Z,109.03
2023-01-25T17:34:45.715Z,97.33
2023-01-25T17:37:13.044Z,109.37
2023-01-25T17:39:40.482Z,97.90
2023-01-25T17:42:09.311Z,109.37
2023-01-25T17:44:36.640Z,106.73
2023-01-25T17:47:03.987Z,110.10
2023-01-25T17:49:31.557Z,109.97
2023-01-25T17:51:58.955Z,109.53
2023-01-25T17:54:26.308Z,107.03
2023-01-25T17:56:55.285Z,104.87
2023-01-25T17:59:22.595Z,109.03
2023-01-25T18:01:50.627Z,124.87
2023-01-25T18:04:18.156Z,102.43
2023-01-25T18:06:45.719Z,127.72
2023-01-25T18:09:13.173Z,113.60
2023-01-25T18:11:41.289Z,110.30
2023-01-25T18:14:09.838Z,114.33
2023-01-25T18:16:38.884Z,121.23
2023-01-25T18:19:06.732Z,120.40
2023-01-25T18:21:34.154Z,120.57
2023-01-25T18:24:06.120Z,115.63
2023-01-25T18:26:35.333Z,120.80
2023-01-25T18:29:05.197Z,128.47
2023-01-25T18:31:32.797Z,119.57
2023-01-25T18:34:00.238Z,121.43
2023-01-25T18:36:27.583Z,125.23
2023-01-25T18:38:55.148Z,121.43
2023-01-25T18:41:22.931Z,128.60
2023-01-25T18:43:50.497Z,125.33
2023-01-25T18:46:17.908Z,118.47
2023-01-25T18:48:47.311Z,127.33
2023-01-25T18:51:15.600Z,109.30
2023-01-25T18:53:44.270Z,112.67
2023-01-25T18:56:18.388Z,116.17
2023-01-25T18:58:45.793Z,98.80
2023-01-25T19:01:20.173Z,119.20
2023-01-25T19:03:47.810Z,107.97
2023-01-25T19:06:15.384Z,109.80
2023-01-25T19:08:44.594Z,119.00
2023-01-25T19:11:13.180Z,121.17
2023-01-25T19:13:40.761Z,118.47
2023-01-25T19:16:09.012Z,120.67
2023-01-25T19:18:37.066Z,114.50
2023-01-25T19:21:07.382Z,134.77
2023-01-25T19:23:35.186Z,102.57
2023-01-25T19:26:02.706Z,126.97
2023-01-25T19:28:30.157Z,130.20
2023-01-25T19:30:57.715Z,120.30
2023-01-25T19:33:25.085Z,132.37
2023-01-25T19:35:59.297Z,130.07
2023-01-25T19:38:26.655Z,119.07
2023-01-25T19:40:54.134Z,134.90
2023-01-25T19:43:21.545Z,127.70
2023-01-25T19:45:48.903Z,113.53
2023-01-25T19:48:16.224Z,135.87
2023-01-25T19:50:43.609Z,136.90
2023-01-25T19:53:10.930Z,130.80
2023-01-25T19:55:38.474Z,128.73
2023-01-25T19:58:08.878Z,137.33
2023-01-25T20:00:36.231Z,141.40
2023-01-25T20:03:15.637Z,133.10
2023-01-25T20:05:43.554Z,125.80
2023-01-25T20:08:10.925Z,136.30
2023-01-25T20:10:38.299Z,132.43
2023-01-25T20:13:05.729Z,131.00
2023-01-25T20:15:33.060Z,138.03
2023-01-25T20:18:00.455Z,119.97
2023-01-25T20:20:27.948Z,138.20
2023-01-25T20:22:55.304Z,132.40
2023-01-25T20:25:22.656Z,125.20
2023-01-25T20:27:50.052Z,120.93
2023-01-25T20:30:17.568Z,130.27
2023-01-25T20:32:45.013Z,121.83
2023-01-25T20:35:12.731Z,117.70
2023-01-25T20:37:40.209Z,125.20
2023-01-25T20:40:08.185Z,119.70
2023-01-25T20:42:35.559Z,120.83
2023-01-25T20:45:02.935Z,123.03
2023-01-25T20:47:30.283Z,134.50
2023-01-25T20:49:57.855Z,120.33
2023-01-25T20:52:25.184Z,122.53
2023-01-25T20:54:54.042Z,132.53
2023-01-25T20:57:21.507Z,129.20
2023-01-25T20:59:48.918Z,111.73
2023-01-25T21:02:16.648Z,130.80
2023-01-25T21:04:44.077Z,119.17
2023-01-25T21:07:11.542Z,119.63
2023-01-25T21:09:39.126Z,118.03
2023-01-25T21:12:07.339Z,114.07
2023-01-25T21:14:34.757Z,120.70
2023-01-25T21:17:02.134Z,109.13
2023-01-25T21:19:29.639Z,120.97
2023-01-25T21:21:57.039Z,112.90
2023-01-25T21:24:24.473Z,97.40
2023-01-25T21:26:52.066Z,105.23
2023-01-25T21:29:21.306Z,119.03
2023-01-25T21:31:49.374Z,106.80
2023-01-25T21:34:17.002Z,105.13
2023-01-25T21:36:44.508Z,105.43
2023-01-25T21:39:11.810Z,103.43
2023-01-25T21:41:39.163Z,94.97
2023-01-25T21:44:25.340Z,96.53
2023-01-25T21:47:19.770Z,92.37
2023-01-25T21:49:58.630Z,101.43
2023-01-25T21:52:25.960Z,95.57
2023-01-25T21:54:53.317Z,104.33
2023-01-25T21:57:20.741Z,90.57
2023-01-25T21:59:49.010Z,83.17
2023-01-25T22:02:16.447Z,81.40
2023-01-25T22:04:43.878Z,95.27
2023-01-25T22:07:11.402Z,80.07
2023-01-25T22:09:38.751Z,91.90
2023-01-25T22:12:06.108Z,83.33
2023-01-25T22:14:33.537Z,87.33
2023-01-25T22:17:02.279Z,79.97
2023-01-25T22:19:29.704Z,76.77
2023-01-25T22:21:57.044Z,75.17
2023-01-25T22:24:24.487Z,68.93
2023-01-25T22:26:54.522Z,64.00
2023-01-25T22:29:21.982Z,70.90
2023-01-25T22:31:49.437Z,71.20
2023-01-25T22:34:16.839Z,72.40
2023-01-25T22:36:44.598Z,67.43
2023-01-25T22:39:14.381Z,68.83
2023-01-25T22:41:41.820Z,76.80
2023-01-25T22:44:10.057Z,64.77
2023-01-25T22:46:37.418Z,65.83
2023-01-25T22:49:05.053Z,59.30
2023-01-25T22:51:32.432Z,61.53
2023-01-25T22:53:59.862Z,55.63
2023-01-25T22:56:28.111Z,57.97
2023-01-25T22:58:55.609Z,54.20
2023-01-25T23:01:23.890Z,54.13
2023-01-25T23:03:51.297Z,52.10
2023-01-25T23:06:22.396Z,49.87
2023-01-25T23:08:49.789Z,49.00
2023-01-25T23:11:17.996Z,52.53
2023-01-25T23:14:04.373Z,57.70
2023-01-25T23:16:31.647Z,48.37
2023-01-25T23:18:58.890Z,45.83
2023-01-25T23:21:27.443Z,35.70
2023-01-25T23:23:58.138Z,51.00
2023-01-25T23:26:25.445Z,49.97
2023-01-25T23:28:53.403Z,47.73
2023-01-25T23:31:24.485Z,53.83
2023-01-25T23:33:55.582Z,48.37
2023-01-25T23:36:23.698Z,45.77
2023-01-25T23:38:51.039Z,48.90
2023-01-25T23:41:19.099Z,55.13
2023-01-25T23:43:46.558Z,52.53
2023-01-25T23:46:14.768Z,46.80
2023-01-25T23:48:42.602Z,46.00
2023-01-25T23:51:11.111Z,45.67
2023-01-25T23:53:38.731Z,51.37
2023-01-25T23:56:07.164Z,49.37
2023-01-25T23:58:35.199Z,53.53
